sensor_id;sensor_type;location;lat;lon;timestamp;pressure;altitude;pressure_sealevel;temperature;humidity
75039;BME280;63609;49.992;14.512;2023-04-06T00:03:30;98462.53;;;-2.90;58.21
75039;BME280;63609;49.992;14.512;2023-04-06T00:05:57;98465.44;;;-2.75;56.77
75039;BME280;63609;49.992;14.512;2023-04-06T00:08:26;98465.84;;;-2.64;56.80
75039;BME280;63609;49.992;14.512;2023-04-06T00:10:53;98462.28;;;-2.83;57.29
75039;BME280;63609;49.992;14.512;2023-04-06T00:13:20;98459.97;;;-2.92;58.56
75039;BME280;63609;49.992;14.512;2023-04-06T00:15:47;98462.44;;;-3.11;60.34
75039;BME280;63609;49.992;14.512;2023-04-06T00:18:14;98456.00;;;-3.26;60.90
75039;BME280;63609;49.992;14.512;2023-04-06T00:20:41;98460.03;;;-2.94;58.33
75039;BME280;63609;49.992;14.512;2023-04-06T00:23:08;98463.13;;;-2.82;58.24
75039;BME280;63609;49.992;14.512;2023-04-06T00:25:36;98454.31;;;-2.80;57.76
75039;BME280;63609;49.992;14.512;2023-04-06T00:28:03;98456.97;;;-2.81;58.35
75039;BME280;63609;49.992;14.512;2023-04-06T00:30:30;98452.97;;;-2.68;57.66
75039;BME280;63609;49.992;14.512;2023-04-06T00:32:57;98450.47;;;-2.71;56.27
75039;BME280;63609;49.992;14.512;2023-04-06T00:35:24;98445.56;;;-2.57;57.01
75039;BME280;63609;49.992;14.512;2023-04-06T00:37:51;98439.31;;;-2.53;56.49
75039;BME280;63609;49.992;14.512;2023-04-06T00:40:18;98443.00;;;-2.58;56.71
75039;BME280;63609;49.992;14.512;2023-04-06T00:42:45;98436.56;;;-2.72;56.85
75039;BME280;63609;49.992;14.512;2023-04-06T00:45:13;98432.03;;;-2.90;58.17
75039;BME280;63609;49.992;14.512;2023-04-06T00:47:40;98432.19;;;-3.16;59.21
75039;BME280;63609;49.992;14.512;2023-04-06T00:50:08;98440.09;;;-3.18;59.51
75039;BME280;63609;49.992;14.512;2023-04-06T00:52:35;98433.78;;;-3.12;59.21
75039;BME280;63609;49.992;14.512;2023-04-06T00:55:04;98430.56;;;-3.19;58.90
75039;BME280;63609;49.992;14.512;2023-04-06T00:57:37;98429.28;;;-3.09;58.59
75039;BME280;63609;49.992;14.512;2023-04-06T01:00:04;98429.41;;;-3.12;58.78
75039;BME280;63609;49.992;14.512;2023-04-06T01:02:32;98426.19;;;-2.97;57.90
75039;BME280;63609;49.992;14.512;2023-04-06T01:04:59;98442.16;;;-2.81;57.47
75039;BME280;63609;49.992;14.512;2023-04-06T01:07:35;98441.56;;;-2.89;58.47
75039;BME280;63609;49.992;14.512;2023-04-06T01:10:22;98436.94;;;-2.81;57.35
75039;BME280;63609;49.992;14.512;2023-04-06T01:12:51;98432.69;;;-3.07;58.46
75039;BME280;63609;49.992;14.512;2023-04-06T01:15:32;98428.72;;;-3.17;59.02
75039;BME280;63609;49.992;14.512;2023-04-06T01:18:01;98433.59;;;-3.31;59.60
75039;BME280;63609;49.992;14.512;2023-04-06T01:20:29;98426.38;;;-3.25;59.40
75039;BME280;63609;49.992;14.512;2023-04-06T01:23:00;98424.00;;;-3.07;59.20
75039;BME280;63609;49.992;14.512;2023-04-06T01:25:27;98432.03;;;-2.90;57.10
75039;BME280;63609;49.992;14.512;2023-04-06T01:28:05;98422.84;;;-2.77;57.07
75039;BME280;63609;49.992;14.512;2023-04-06T01:31:03;98425.81;;;-2.64;57.21
75039;BME280;63609;49.992;14.512;2023-04-06T01:33:44;98417.66;;;-2.56;56.35
75039;BME280;63609;49.992;14.512;2023-04-06T01:36:16;98419.91;;;-2.69;55.83
75039;BME280;63609;49.992;14.512;2023-04-06T01:38:46;98425.13;;;-2.91;58.03
75039;BME280;63609;49.992;14.512;2023-04-06T01:41:17;98427.59;;;-3.33;59.79
75039;BME280;63609;49.992;14.512;2023-04-06T01:43:48;98421.34;;;-3.52;60.50
75039;BME280;63609;49.992;14.512;2023-04-06T01:46:16;98423.03;;;-3.28;59.87
75039;BME280;63609;49.992;14.512;2023-04-06T01:48:44;98416.41;;;-3.13;59.40
75039;BME280;63609;49.992;14.512;2023-04-06T01:51:19;98424.13;;;-3.10;59.59
75039;BME280;63609;49.992;14.512;2023-04-06T01:53:57;98414.91;;;-2.97;58.26
75039;BME280;63609;49.992;14.512;2023-04-06T01:56:34;98419.34;;;-2.99;58.48
75039;BME280;63609;49.992;14.512;2023-04-06T01:59:11;98419.63;;;-3.07;58.30
75039;BME280;63609;49.992;14.512;2023-04-06T02:01:41;98412.66;;;-3.30;59.07
75039;BME280;63609;49.992;14.512;2023-04-06T02:04:08;98422.69;;;-2.96;57.55
75039;BME280;63609;49.992;14.512;2023-04-06T02:06:36;98417.25;;;-3.13;56.81
75039;BME280;63609;49.992;14.512;2023-04-06T02:09:05;98422.97;;;-3.27;58.58
75039;BME280;63609;49.992;14.512;2023-04-06T02:11:32;98414.31;;;-3.50;59.49
75039;BME280;63609;49.992;14.512;2023-04-06T02:14:00;98418.97;;;-3.35;58.56
75039;BME280;63609;49.992;14.512;2023-04-06T02:16:31;98416.91;;;-3.27;57.84
75039;BME280;63609;49.992;14.512;2023-04-06T02:19:02;98422.25;;;-3.30;58.54
75039;BME280;63609;49.992;14.512;2023-04-06T02:21:29;98410.44;;;-3.40;58.59
75039;BME280;63609;49.992;14.512;2023-04-06T02:23:57;98418.81;;;-3.56;59.82
75039;BME280;63609;49.992;14.512;2023-04-06T02:26:24;98420.47;;;-3.53;59.60
75039;BME280;63609;49.992;14.512;2023-04-06T02:28:51;98411.09;;;-3.59;58.89
75039;BME280;63609;49.992;14.512;2023-04-06T02:31:19;98417.13;;;-3.57;58.75
75039;BME280;63609;49.992;14.512;2023-04-06T02:33:46;98416.97;;;-3.52;58.29
75039;BME280;63609;49.992;14.512;2023-04-06T02:36:14;98416.81;;;-3.47;57.74
75039;BME280;63609;49.992;14.512;2023-04-06T02:38:42;98411.00;;;-3.56;58.33
75039;BME280;63609;49.992;14.512;2023-04-06T02:41:09;98421.28;;;-3.51;58.23
75039;BME280;63609;49.992;14.512;2023-04-06T02:43:37;98416.38;;;-3.60;58.35
75039;BME280;63609;49.992;14.512;2023-04-06T02:46:24;98420.69;;;-3.59;58.58
75039;BME280;63609;49.992;14.512;2023-04-06T02:48:52;98398.63;;;-3.74;58.95
75039;BME280;63609;49.992;14.512;2023-04-06T02:51:20;98405.53;;;-3.73;59.25
75039;BME280;63609;49.992;14.512;2023-04-06T02:53:53;98410.19;;;-3.58;59.03
75039;BME280;63609;49.992;14.512;2023-04-06T02:56:20;98414.72;;;-3.63;58.90
75039;BME280;63609;49.992;14.512;2023-04-06T02:58:50;98413.53;;;-3.54;58.00
75039;BME280;63609;49.992;14.512;2023-04-06T03:01:18;98420.47;;;-3.53;57.20
75039;BME280;63609;49.992;14.512;2023-04-06T03:03:48;98422.88;;;-3.47;57.80
75039;BME280;63609;49.992;14.512;2023-04-06T03:06:22;98427.16;;;-3.69;59.47
75039;BME280;63609;49.992;14.512;2023-04-06T03:08:54;98423.16;;;-3.79;60.58
75039;BME280;63609;49.992;14.512;2023-04-06T03:11:21;98427.53;;;-4.05;61.42
75039;BME280;63609;49.992;14.512;2023-04-06T03:13:50;98419.22;;;-3.91;61.29
75039;BME280;63609;49.992;14.512;2023-04-06T03:16:17;98426.47;;;-3.99;61.48
75039;BME280;63609;49.992;14.512;2023-04-06T03:18:45;98428.91;;;-3.70;60.25
75039;BME280;63609;49.992;14.512;2023-04-06T03:21:14;98423.47;;;-3.89;61.23
75039;BME280;63609;49.992;14.512;2023-04-06T03:23:50;98417.56;;;-3.69;59.43
75039;BME280;63609;49.992;14.512;2023-04-06T03:26:18;98420.63;;;-3.81;60.29
75039;BME280;63609;49.992;14.512;2023-04-06T03:28:45;98420.34;;;-3.98;61.55
75039;BME280;63609;49.992;14.512;2023-04-06T03:31:12;98420.91;;;-4.15;62.38
75039;BME280;63609;49.992;14.512;2023-04-06T03:33:59;98414.88;;;-4.42;63.86
75039;BME280;63609;49.992;14.512;2023-04-06T03:36:31;98419.28;;;-4.17;63.24
75039;BME280;63609;49.992;14.512;2023-04-06T03:38:59;98419.00;;;-4.10;62.59
75039;BME280;63609;49.992;14.512;2023-04-06T03:41:30;98417.00;;;-3.77;60.92
75039;BME280;63609;49.992;14.512;2023-04-06T03:44:06;98426.81;;;-3.60;60.04
75039;BME280;63609;49.992;14.512;2023-04-06T03:46:34;98425.16;;;-3.88;61.19
75039;BME280;63609;49.992;14.512;2023-04-06T03:49:01;98427.00;;;-3.65;59.89
75039;BME280;63609;49.992;14.512;2023-04-06T03:51:29;98427.69;;;-3.84;60.58
75039;BME280;63609;49.992;14.512;2023-04-06T03:53:56;98428.84;;;-3.93;60.58
75039;BME280;63609;49.992;14.512;2023-04-06T03:56:23;98438.81;;;-4.04;61.70
75039;BME280;63609;49.992;14.512;2023-04-06T03:58:52;98437.28;;;-3.85;61.03
75039;BME280;63609;49.992;14.512;2023-04-06T04:01:20;98439.38;;;-3.96;61.36
75039;BME280;63609;49.992;14.512;2023-04-06T04:03:47;98427.09;;;-3.93;61.99
75039;BME280;63609;49.992;14.512;2023-04-06T04:06:17;98446.63;;;-4.04;61.78
75039;BME280;63609;49.992;14.512;2023-04-06T04:08:45;98445.78;;;-4.05;62.32
75039;BME280;63609;49.992;14.512;2023-04-06T04:11:12;98439.91;;;-3.85;61.37
75039;BME280;63609;49.992;14.512;2023-04-06T04:13:39;98437.69;;;-3.72;59.69
75039;BME280;63609;49.992;14.512;2023-04-06T04:16:07;98447.28;;;-3.73;60.54
75039;BME280;63609;49.992;14.512;2023-04-06T04:18:36;98441.78;;;-3.90;61.02
75039;BME280;63609;49.992;14.512;2023-04-06T04:21:05;98439.50;;;-3.74;60.50
75039;BME280;63609;49.992;14.512;2023-04-06T04:23:35;98440.81;;;-3.88;60.98
75039;BME280;63609;49.992;14.512;2023-04-06T04:26:11;98449.97;;;-4.01;61.89
75039;BME280;63609;49.992;14.512;2023-04-06T04:28:43;98450.78;;;-3.99;61.48
75039;BME280;63609;49.992;14.512;2023-04-06T04:31:10;98450.75;;;-3.72;60.28
75039;BME280;63609;49.992;14.512;2023-04-06T04:33:40;98449.50;;;-3.87;61.38
75039;BME280;63609;49.992;14.512;2023-04-06T04:36:12;98447.06;;;-3.67;59.42
75039;BME280;63609;49.992;14.512;2023-04-06T04:38:42;98452.22;;;-3.65;58.71
75039;BME280;63609;49.992;14.512;2023-04-06T04:41:10;98444.78;;;-3.76;58.52
75039;BME280;63609;49.992;14.512;2023-04-06T04:43:40;98444.84;;;-3.77;58.79
75039;BME280;63609;49.992;14.512;2023-04-06T04:46:10;98450.75;;;-3.72;58.17
75039;BME280;63609;49.992;14.512;2023-04-06T04:48:40;98448.91;;;-3.95;57.60
75039;BME280;63609;49.992;14.512;2023-04-06T04:51:08;98459.03;;;-3.86;58.99
75039;BME280;63609;49.992;14.512;2023-04-06T04:53:55;98450.66;;;-3.96;59.10
75039;BME280;63609;49.992;14.512;2023-04-06T04:56:27;98441.78;;;-3.90;58.52
75039;BME280;63609;49.992;14.512;2023-04-06T04:59:04;98449.41;;;-3.59;58.17
75039;BME280;63609;49.992;14.512;2023-04-06T05:01:35;98451.22;;;-3.61;59.00
75039;BME280;63609;49.992;14.512;2023-04-06T05:04:22;98457.72;;;-3.48;58.47
75039;BME280;63609;49.992;14.512;2023-04-06T05:07:06;98460.16;;;-3.43;58.65
75039;BME280;63609;49.992;14.512;2023-04-06T05:09:35;98461.53;;;-3.10;57.54
75039;BME280;63609;49.992;14.512;2023-04-06T05:12:02;98465.00;;;-3.09;57.54
75039;BME280;63609;49.992;14.512;2023-04-06T05:14:35;98466.06;;;-2.91;57.76
75039;BME280;63609;49.992;14.512;2023-04-06T05:17:06;98464.88;;;-3.06;58.78
75039;BME280;63609;49.992;14.512;2023-04-06T05:19:36;98465.09;;;-3.36;60.70
75039;BME280;63609;49.992;14.512;2023-04-06T05:22:04;98455.56;;;-3.37;60.96
75039;BME280;63609;49.992;14.512;2023-04-06T05:24:36;98470.38;;;-3.37;61.26
75039;BME280;63609;49.992;14.512;2023-04-06T05:27:05;98466.44;;;-3.49;62.05
75039;BME280;63609;49.992;14.512;2023-04-06T05:29:33;98466.78;;;-3.83;63.30
75039;BME280;63609;49.992;14.512;2023-04-06T05:32:01;98464.44;;;-3.92;64.38
75039;BME280;63609;49.992;14.512;2023-04-06T05:34:29;98464.88;;;-4.04;65.41
75039;BME280;63609;49.992;14.512;2023-04-06T05:37:01;98468.25;;;-3.51;64.14
75039;BME280;63609;49.992;14.512;2023-04-06T05:39:30;98468.34;;;-3.54;64.51
75039;BME280;63609;49.992;14.512;2023-04-06T05:42:03;98464.94;;;-3.31;64.09
75039;BME280;63609;49.992;14.512;2023-04-06T05:44:43;98468.03;;;-3.20;63.35
75039;BME280;63609;49.992;14.512;2023-04-06T05:47:14;98474.47;;;-2.83;62.33
75039;BME280;63609;49.992;14.512;2023-04-06T05:49:46;98470.66;;;-2.75;62.49
75039;BME280;63609;49.992;14.512;2023-04-06T05:52:22;98471.59;;;-2.54;61.66
75039;BME280;63609;49.992;14.512;2023-04-06T05:54:51;98469.63;;;-2.27;61.26
75039;BME280;63609;49.992;14.512;2023-04-06T05:57:18;98467.47;;;-1.95;60.32
75039;BME280;63609;49.992;14.512;2023-04-06T05:59:47;98469.78;;;-1.88;60.01
75039;BME280;63609;49.992;14.512;2023-04-06T06:02:15;98468.94;;;-1.88;59.96
75039;BME280;63609;49.992;14.512;2023-04-06T06:04:46;98465.38;;;-1.67;60.23
75039;BME280;63609;49.992;14.512;2023-04-06T06:07:15;98464.13;;;-1.58;58.82
75039;BME280;63609;49.992;14.512;2023-04-06T06:09:47;98468.94;;;-1.48;58.31
75039;BME280;63609;49.992;14.512;2023-04-06T06:12:23;98476.72;;;-1.66;58.68
75039;BME280;63609;49.992;14.512;2023-04-06T06:14:51;98472.03;;;-1.19;56.93
75039;BME280;63609;49.992;14.512;2023-04-06T06:17:19;98481.19;;;-0.34;56.47
75039;BME280;63609;49.992;14.512;2023-04-06T06:19:47;98475.72;;;0.07;55.25
75039;BME280;63609;49.992;14.512;2023-04-06T06:22:15;98472.47;;;0.36;54.51
75039;BME280;63609;49.992;14.512;2023-04-06T06:24:45;98474.41;;;0.50;52.84
75039;BME280;63609;49.992;14.512;2023-04-06T06:27:14;98470.06;;;0.32;53.44
75039;BME280;63609;49.992;14.512;2023-04-06T06:29:42;98473.72;;;0.46;53.00
75039;BME280;63609;49.992;14.512;2023-04-06T06:32:10;98482.56;;;0.78;53.64
75039;BME280;63609;49.992;14.512;2023-04-06T06:34:38;98477.66;;;0.88;53.33
75039;BME280;63609;49.992;14.512;2023-04-06T06:37:09;98483.16;;;1.17;51.76
75039;BME280;63609;49.992;14.512;2023-04-06T06:39:37;98477.47;;;1.24;51.53
75039;BME280;63609;49.992;14.512;2023-04-06T06:42:10;98476.19;;;1.49;51.88
75039;BME280;63609;49.992;14.512;2023-04-06T06:45:02;98478.47;;;1.70;51.01
75039;BME280;63609;49.992;14.512;2023-04-06T06:47:29;98479.69;;;1.32;49.68
75039;BME280;63609;49.992;14.512;2023-04-06T06:50:02;98479.59;;;0.85;52.73
75039;BME280;63609;49.992;14.512;2023-04-06T06:52:30;98476.53;;;1.09;53.21
75039;BME280;63609;49.992;14.512;2023-04-06T06:54:59;98482.97;;;1.53;51.59
75039;BME280;63609;49.992;14.512;2023-04-06T06:57:30;98474.97;;;2.01;50.46
75039;BME280;63609;49.992;14.512;2023-04-06T07:00:00;98478.75;;;2.42;49.41
75039;BME280;63609;49.992;14.512;2023-04-06T07:02:28;98475.94;;;2.45;48.84
75039;BME280;63609;49.992;14.512;2023-04-06T07:04:56;98479.94;;;2.66;48.75
75039;BME280;63609;49.992;14.512;2023-04-06T07:07:23;98483.91;;;2.87;48.32
75039;BME280;63609;49.992;14.512;2023-04-06T07:09:50;98488.00;;;2.63;49.12
75039;BME280;63609;49.992;14.512;2023-04-06T07:12:18;98479.66;;;2.71;47.73
75039;BME280;63609;49.992;14.512;2023-04-06T07:14:45;98475.78;;;2.32;48.00
75039;BME280;63609;49.992;14.512;2023-04-06T07:17:13;98475.47;;;2.52;48.10
75039;BME280;63609;49.992;14.512;2023-04-06T07:19:41;98478.25;;;2.79;48.11
75039;BME280;63609;49.992;14.512;2023-04-06T07:22:09;98480.34;;;1.68;50.29
75039;BME280;63609;49.992;14.512;2023-04-06T07:24:37;98474.47;;;1.79;51.35
75039;BME280;63609;49.992;14.512;2023-04-06T07:27:04;98479.31;;;1.55;51.65
75039;BME280;63609;49.992;14.512;2023-04-06T07:29:32;98476.88;;;1.35;50.35
75039;BME280;63609;49.992;14.512;2023-04-06T07:32:02;98477.06;;;0.83;51.62
75039;BME280;63609;49.992;14.512;2023-04-06T07:34:31;98476.00;;;1.67;48.75
75039;BME280;63609;49.992;14.512;2023-04-06T07:36:59;98475.41;;;1.78;48.35
75039;BME280;63609;49.992;14.512;2023-04-06T07:39:33;98469.44;;;2.50;47.49
75039;BME280;63609;49.992;14.512;2023-04-06T07:42:04;98467.91;;;3.33;47.08
75039;BME280;63609;49.992;14.512;2023-04-06T07:44:35;98474.63;;;4.07;44.27
75039;BME280;63609;49.992;14.512;2023-04-06T07:47:03;98471.59;;;4.65;44.23
75039;BME280;63609;49.992;14.512;2023-04-06T07:49:31;98469.03;;;4.11;43.74
75039;BME280;63609;49.992;14.512;2023-04-06T07:52:01;98481.75;;;3.78;44.19
75039;BME280;63609;49.992;14.512;2023-04-06T07:54:31;98477.81;;;3.85;44.38
75039;BME280;63609;49.992;14.512;2023-04-06T07:56:59;98476.09;;;3.43;45.41
75039;BME280;63609;49.992;14.512;2023-04-06T07:59:27;98474.72;;;4.58;45.30
75039;BME280;63609;49.992;14.512;2023-04-06T08:01:54;98478.50;;;4.28;43.55
75039;BME280;63609;49.992;14.512;2023-04-06T08:04:24;98472.75;;;3.95;44.54
75039;BME280;63609;49.992;14.512;2023-04-06T08:06:52;98477.81;;;3.15;45.99
75039;BME280;63609;49.992;14.512;2023-04-06T08:09:19;98472.41;;;3.45;44.99
75039;BME280;63609;49.992;14.512;2023-04-06T08:11:50;98472.00;;;3.66;44.45
75039;BME280;63609;49.992;14.512;2023-04-06T08:14:21;98475.91;;;4.14;44.36
75039;BME280;63609;49.992;14.512;2023-04-06T08:16:49;98478.47;;;4.80;42.97
75039;BME280;63609;49.992;14.512;2023-04-06T08:19:16;98466.75;;;5.59;42.38
75039;BME280;63609;49.992;14.512;2023-04-06T08:21:44;98473.06;;;5.33;42.45
75039;BME280;63609;49.992;14.512;2023-04-06T08:24:13;98459.31;;;5.64;41.70
75039;BME280;63609;49.992;14.512;2023-04-06T08:26:42;98465.84;;;6.32;41.35
75039;BME280;63609;49.992;14.512;2023-04-06T08:29:09;98462.47;;;6.30;39.89
75039;BME280;63609;49.992;14.512;2023-04-06T08:31:51;98465.97;;;5.70;41.17
75039;BME280;63609;49.992;14.512;2023-04-06T08:34:20;98454.66;;;6.16;38.55
75039;BME280;63609;49.992;14.512;2023-04-06T08:36:48;98459.19;;;6.26;38.24
75039;BME280;63609;49.992;14.512;2023-04-06T08:39:15;98446.81;;;6.38;37.59
75039;BME280;63609;49.992;14.512;2023-04-06T08:41:43;98458.91;;;6.53;39.58
75039;BME280;63609;49.992;14.512;2023-04-06T08:44:13;98457.53;;;6.36;37.93
75039;BME280;63609;49.992;14.512;2023-04-06T08:46:41;98454.75;;;5.66;38.92
75039;BME280;63609;49.992;14.512;2023-04-06T08:49:09;98458.91;;;7.22;38.37
75039;BME280;63609;49.992;14.512;2023-04-06T08:51:37;98462.66;;;5.42;36.79
75039;BME280;63609;49.992;14.512;2023-04-06T08:54:06;98458.81;;;5.46;36.30
75039;BME280;63609;49.992;14.512;2023-04-06T08:56:38;98459.72;;;5.09;37.93
75039;BME280;63609;49.992;14.512;2023-04-06T08:59:11;98463.44;;;5.32;37.97
75039;BME280;63609;49.992;14.512;2023-04-06T09:01:43;98456.13;;;4.84;38.36
75039;BME280;63609;49.992;14.512;2023-04-06T09:04:13;98465.38;;;5.54;36.89
75039;BME280;63609;49.992;14.512;2023-04-06T09:06:44;98451.91;;;6.98;34.59
75039;BME280;63609;49.992;14.512;2023-04-06T09:09:15;98448.13;;;6.32;34.86
75039;BME280;63609;49.992;14.512;2023-04-06T09:11:52;98449.31;;;5.81;36.38
75039;BME280;63609;49.992;14.512;2023-04-06T09:14:36;98453.47;;;7.23;34.91
75039;BME280;63609;49.992;14.512;2023-04-06T09:17:05;98437.06;;;7.07;35.18
75039;BME280;63609;49.992;14.512;2023-04-06T09:19:32;98436.34;;;7.39;34.29
75039;BME280;63609;49.992;14.512;2023-04-06T09:22:04;98444.44;;;7.37;33.40
75039;BME280;63609;49.992;14.512;2023-04-06T09:25:05;98449.38;;;7.53;35.69
75039;BME280;63609;49.992;14.512;2023-04-06T09:27:34;98438.91;;;7.94;33.10
75039;BME280;63609;49.992;14.512;2023-04-06T09:32:45;98435.25;;;8.80;28.03
75039;BME280;63609;49.992;14.512;2023-04-06T09:35:13;98434.97;;;9.04;26.94
75039;BME280;63609;49.992;14.512;2023-04-06T09:37:43;98433.81;;;7.37;28.22
75039;BME280;63609;49.992;14.512;2023-04-06T09:40:11;98435.28;;;8.27;29.47
75039;BME280;63609;49.992;14.512;2023-04-06T09:42:41;98424.47;;;8.82;30.53
75039;BME280;63609;49.992;14.512;2023-04-06T09:45:09;98432.75;;;7.83;29.19
75039;BME280;63609;49.992;14.512;2023-04-06T09:47:36;98427.19;;;6.17;32.02
75039;BME280;63609;49.992;14.512;2023-04-06T09:50:04;98425.47;;;7.08;29.49
75039;BME280;63609;49.992;14.512;2023-04-06T09:52:33;98428.63;;;7.36;30.38
75039;BME280;63609;49.992;14.512;2023-04-06T09:55:05;98423.69;;;7.31;31.32
75039;BME280;63609;49.992;14.512;2023-04-06T10:00:25;98425.78;;;7.71;29.48
75039;BME280;63609;49.992;14.512;2023-04-06T10:03:13;98420.09;;;9.02;27.26
75039;BME280;63609;49.992;14.512;2023-04-06T10:05:55;98414.31;;;8.34;29.05
75039;BME280;63609;49.992;14.512;2023-04-06T10:08:27;98412.31;;;9.60;28.11
75039;BME280;63609;49.992;14.512;2023-04-06T10:10:59;98414.38;;;10.35;26.95
75039;BME280;63609;49.992;14.512;2023-04-06T10:13:27;98413.22;;;9.39;26.48
75039;BME280;63609;49.992;14.512;2023-04-06T10:15:55;98405.53;;;10.05;24.35
75039;BME280;63609;49.992;14.512;2023-04-06T10:18:23;98408.34;;;10.04;25.99
75039;BME280;63609;49.992;14.512;2023-04-06T10:21:09;98408.06;;;9.97;25.82
75039;BME280;63609;49.992;14.512;2023-04-06T10:23:46;98400.91;;;10.36;24.51
75039;BME280;63609;49.992;14.512;2023-04-06T10:26:17;98404.25;;;10.38;25.24
75039;BME280;63609;49.992;14.512;2023-04-06T10:28:46;98402.28;;;10.60;23.75
75039;BME280;63609;49.992;14.512;2023-04-06T10:31:14;98406.50;;;8.74;25.08
75039;BME280;63609;49.992;14.512;2023-04-06T10:33:54;98399.22;;;6.48;27.93
75039;BME280;63609;49.992;14.512;2023-04-06T10:36:27;98402.03;;;6.57;29.53
75039;BME280;63609;49.992;14.512;2023-04-06T10:39:00;98396.00;;;7.11;30.47
75039;BME280;63609;49.992;14.512;2023-04-06T10:41:34;98400.09;;;6.70;28.78
75039;BME280;63609;49.992;14.512;2023-04-06T10:44:03;98384.19;;;6.82;29.00
75039;BME280;63609;49.992;14.512;2023-04-06T10:46:39;98387.06;;;8.42;29.04
75039;BME280;63609;49.992;14.512;2023-04-06T10:49:12;98396.50;;;9.18;27.74
75039;BME280;63609;49.992;14.512;2023-04-06T10:51:39;98381.31;;;9.49;27.29
75039;BME280;63609;49.992;14.512;2023-04-06T10:54:07;98388.84;;;10.23;25.84
75039;BME280;63609;49.992;14.512;2023-04-06T10:56:37;98395.19;;;9.12;25.38
75039;BME280;63609;49.992;14.512;2023-04-06T10:59:06;98379.78;;;8.65;26.17
75039;BME280;63609;49.992;14.512;2023-04-06T11:01:35;98378.16;;;8.94;26.68
75039;BME280;63609;49.992;14.512;2023-04-06T11:04:03;98370.06;;;8.33;27.09
75039;BME280;63609;49.992;14.512;2023-04-06T11:06:31;98373.00;;;8.30;26.51
75039;BME280;63609;49.992;14.512;2023-04-06T11:08:59;98364.69;;;9.36;26.48
75039;BME280;63609;49.992;14.512;2023-04-06T11:11:27;98368.75;;;9.20;25.76
75039;BME280;63609;49.992;14.512;2023-04-06T11:13:57;98370.00;;;8.65;26.68
75039;BME280;63609;49.992;14.512;2023-04-06T11:16:29;98368.84;;;6.52;29.08
75039;BME280;63609;49.992;14.512;2023-04-06T11:19:02;98370.38;;;7.98;28.48
75039;BME280;63609;49.992;14.512;2023-04-06T11:26:53;98373.22;;;7.09;27.15
75039;BME280;63609;49.992;14.512;2023-04-06T11:29:29;98368.09;;;8.98;27.09
75039;BME280;63609;49.992;14.512;2023-04-06T11:32:05;98355.34;;;9.51;26.26
75039;BME280;63609;49.992;14.512;2023-04-06T11:34:37;98349.66;;;10.13;25.25
75039;BME280;63609;49.992;14.512;2023-04-06T11:37:10;98349.09;;;10.00;25.04
75039;BME280;63609;49.992;14.512;2023-04-06T11:39:39;98354.09;;;10.52;27.28
75039;BME280;63609;49.992;14.512;2023-04-06T11:42:08;98348.09;;;10.11;24.54
75039;BME280;63609;49.992;14.512;2023-04-06T11:44:40;98347.22;;;9.72;26.71
75039;BME280;63609;49.992;14.512;2023-04-06T11:47:12;98347.69;;;9.96;25.38
75039;BME280;63609;49.992;14.512;2023-04-06T11:49:44;98340.47;;;10.45;25.15
75039;BME280;63609;49.992;14.512;2023-04-06T11:52:22;98346.56;;;10.74;25.47
75039;BME280;63609;49.992;14.512;2023-04-06T11:54:51;98340.53;;;10.82;24.40
75039;BME280;63609;49.992;14.512;2023-04-06T11:57:20;98346.66;;;10.55;24.40
75039;BME280;63609;49.992;14.512;2023-04-06T11:59:48;98344.56;;;10.39;24.28
75039;BME280;63609;49.992;14.512;2023-04-06T12:02:18;98343.44;;;9.55;25.07
75039;BME280;63609;49.992;14.512;2023-04-06T12:04:46;98333.75;;;9.64;25.20
75039;BME280;63609;49.992;14.512;2023-04-06T12:07:14;98340.53;;;10.72;24.26
75039;BME280;63609;49.992;14.512;2023-04-06T12:09:42;98331.38;;;11.49;24.40
75039;BME280;63609;49.992;14.512;2023-04-06T12:12:10;98336.03;;;10.73;23.65
75039;BME280;63609;49.992;14.512;2023-04-06T12:14:37;98333.47;;;10.34;23.76
75039;BME280;63609;49.992;14.512;2023-04-06T12:17:05;98316.03;;;10.40;23.73
75039;BME280;63609;49.992;14.512;2023-04-06T12:19:36;98333.38;;;10.17;23.82
75039;BME280;63609;49.992;14.512;2023-04-06T12:22:03;98330.84;;;9.96;23.55
75039;BME280;63609;49.992;14.512;2023-04-06T12:24:30;98322.56;;;10.08;24.54
75039;BME280;63609;49.992;14.512;2023-04-06T12:26:57;98321.34;;;10.59;23.21
75039;BME280;63609;49.992;14.512;2023-04-06T12:29:34;98320.72;;;10.75;21.82
75039;BME280;63609;49.992;14.512;2023-04-06T12:32:04;98311.00;;;11.38;24.57
75039;BME280;63609;49.992;14.512;2023-04-06T12:34:32;98309.78;;;12.40;21.15
75039;BME280;63609;49.992;14.512;2023-04-06T12:37:00;98316.84;;;10.97;25.26
75039;BME280;63609;49.992;14.512;2023-04-06T12:39:27;98311.13;;;11.47;22.69
75039;BME280;63609;49.992;14.512;2023-04-06T12:41:55;98309.66;;;11.52;21.95
75039;BME280;63609;49.992;14.512;2023-04-06T12:44:30;98308.53;;;10.63;23.24
75039;BME280;63609;49.992;14.512;2023-04-06T12:46:58;98291.50;;;10.27;23.97
75039;BME280;63609;49.992;14.512;2023-04-06T12:49:26;98301.31;;;10.83;23.13
75039;BME280;63609;49.992;14.512;2023-04-06T12:51:54;98298.41;;;10.10;22.90
75039;BME280;63609;49.992;14.512;2023-04-06T12:54:24;98297.78;;;8.79;24.53
75039;BME280;63609;49.992;14.512;2023-04-06T12:56:53;98291.53;;;10.17;23.58
75039;BME280;63609;49.992;14.512;2023-04-06T12:59:23;98292.75;;;9.36;24.52
75039;BME280;63609;49.992;14.512;2023-04-06T13:01:52;98295.59;;;10.21;22.77
75039;BME280;63609;49.992;14.512;2023-04-06T13:04:21;98292.59;;;10.34;23.24
75039;BME280;63609;49.992;14.512;2023-04-06T13:06:54;98287.84;;;9.41;23.64
75039;BME280;63609;49.992;14.512;2023-04-06T13:09:24;98289.69;;;11.11;22.65
75039;BME280;63609;49.992;14.512;2023-04-06T13:11:53;98287.22;;;10.90;24.69
75039;BME280;63609;49.992;14.512;2023-04-06T13:14:21;98275.88;;;11.33;22.84
75039;BME280;63609;49.992;14.512;2023-04-06T13:16:52;98285.56;;;11.07;22.74
75039;BME280;63609;49.992;14.512;2023-04-06T13:19:20;98290.28;;;10.02;24.33
75039;BME280;63609;49.992;14.512;2023-04-06T13:21:48;98282.97;;;10.60;24.02
75039;BME280;63609;49.992;14.512;2023-04-06T13:24:15;98281.28;;;8.55;26.26